createdAt,value
2018-05-25T00:01:30.423Z,82.30
2018-05-25T00:03:58.056Z,82.90
2018-05-25T00:06:25.633Z,82.50
2018-05-25T00:08:53.166Z,82.60
2018-05-25T00:11:20.727Z,83.20
2018-05-25T00:13:48.257Z,82.80
2018-05-25T00:16:15.813Z,83.50
2018-05-25T00:18:43.326Z,83.40
2018-05-25T00:21:10.916Z,82.70
2018-05-25T00:23:38.435Z,82.20
2018-05-25T00:26:06.032Z,82.10
2018-05-25T00:28:33.561Z,82.60
2018-05-25T00:31:01.074Z,82.70
2018-05-25T00:33:28.631Z,82.80
2018-05-25T00:35:56.144Z,82.90
2018-05-25T00:38:23.702Z,82.60
2018-05-25T00:40:51.273Z,82.70
2018-05-25T00:43:18.941Z,82.30
2018-05-25T00:45:46.493Z,82.50
2018-05-25T00:48:14.077Z,82.80
2018-05-25T00:50:41.592Z,82.90
2018-05-25T00:53:09.218Z,82.50
2018-05-25T00:55:39.641Z,82.80
2018-05-25T00:58:07.245Z,83.30
2018-05-25T01:00:34.877Z,83.50
2018-05-25T01:03:04.396Z,83.50
2018-05-25T01:05:31.952Z,83.50
2018-05-25T01:07:59.559Z,83.00
2018-05-25T01:10:27.155Z,83.00
2018-05-25T01:12:54.736Z,83.10
2018-05-25T01:15:22.291Z,83.40
2018-05-25T01:17:49.821Z,83.30
2018-05-25T01:20:17.385Z,83.70
2018-05-25T01:22:44.911Z,84.70
2018-05-25T01:25:12.529Z,83.90
2018-05-25T01:27:40.145Z,83.90
2018-05-25T01:30:07.758Z,84.20
2018-05-25T01:32:35.323Z,84.60
2018-05-25T01:35:02.852Z,84.00
2018-05-25T01:37:30.400Z,83.80
2018-05-25T01:39:57.929Z,83.60
2018-05-25T01:42:25.555Z,83.60
2018-05-25T01:44:53.159Z,83.70
2018-05-25T01:47:20.806Z,83.70
2018-05-25T01:49:48.366Z,83.40
2018-05-25T01:52:15.893Z,83.50
2018-05-25T01:54:43.448Z,83.90
2018-05-25T01:57:11.047Z,84.30
2018-05-25T01:59:38.634Z,84.60
2018-05-25T02:02:06.184Z,84.90
2018-05-25T02:04:33.765Z,85.60
2018-05-25T02:07:01.298Z,84.60
2018-05-25T02:09:28.939Z,84.60
2018-05-25T02:11:56.493Z,84.60
2018-05-25T02:14:24.015Z,84.60
2018-05-25T02:16:51.570Z,83.60
2018-05-25T02:19:19.119Z,83.70
2018-05-25T02:21:46.756Z,84.20
2018-05-25T02:24:15.231Z,84.10
2018-05-25T02:26:42.873Z,84.40
2018-05-25T02:29:10.401Z,84.40
2018-05-25T02:31:37.945Z,84.70
2018-05-25T02:34:06.511Z,84.80
2018-05-25T02:36:34.975Z,84.90
2018-05-25T02:39:02.578Z,85.30
2018-05-25T02:41:30.130Z,85.00
2018-05-25T02:43:57.700Z,85.20
2018-05-25T02:46:25.240Z,85.00
2018-05-25T02:48:52.915Z,84.70
2018-05-25T02:51:20.456Z,85.50
2018-05-25T02:53:48.007Z,85.60
2018-05-25T02:56:15.565Z,85.90
2018-05-25T02:58:43.288Z,85.60
2018-05-25T03:01:10.891Z,85.60
2018-05-25T03:03:38.422Z,85.90
2018-05-25T03:06:07.187Z,86.10
2018-05-25T03:08:34.763Z,86.00
2018-05-25T03:11:02.429Z,86.20
2018-05-25T03:13:30.029Z,86.10
2018-05-25T03:15:57.541Z,86.20
2018-05-25T03:18:25.105Z,87.20
2018-05-25T03:20:52.647Z,86.80
2018-05-25T03:23:20.321Z,86.90
2018-05-25T03:25:47.947Z,87.00
2018-05-25T03:28:15.628Z,87.20
2018-05-25T03:30:43.155Z,86.70
2018-05-25T03:33:10.696Z,86.70
2018-05-25T03:35:38.259Z,86.60
2018-05-25T03:38:05.791Z,86.70
2018-05-25T03:40:33.393Z,86.80
2018-05-25T03:43:01.036Z,86.90
2018-05-25T03:45:28.592Z,86.70
2018-05-25T03:47:56.119Z,86.80
2018-05-25T03:50:24.141Z,86.70
2018-05-25T03:52:51.719Z,86.70
2018-05-25T03:55:19.246Z,87.30
2018-05-25T03:57:46.819Z,86.70
2018-05-25T04:00:26.055Z,86.80
2018-05-25T04:02:53.603Z,86.90
2018-05-25T04:05:22.062Z,87.00
2018-05-25T04:07:49.806Z,87.00
2018-05-25T04:10:17.442Z,86.90
2018-05-25T04:12:44.979Z,86.90
2018-05-25T04:15:12.516Z,87.10
2018-05-25T04:17:40.241Z,87.10
2018-05-25T04:20:07.827Z,86.90
2018-05-25T04:22:35.402Z,84.20
2018-05-25T04:25:02.947Z,84.70
2018-05-25T04:27:30.652Z,84.60
2018-05-25T04:29:59.129Z,82.10
2018-05-25T04:32:28.098Z,82.30
2018-05-25T04:34:55.785Z,81.70
2018-05-25T04:37:23.656Z,81.40
2018-05-25T04:39:51.245Z,81.80
2018-05-25T04:42:20.161Z,81.20
2018-05-25T04:44:47.695Z,81.90
2018-05-25T04:47:15.288Z,80.90
2018-05-25T04:49:42.916Z,81.30
2018-05-25T04:52:11.323Z,80.60
2018-05-25T04:54:38.984Z,79.50
2018-05-25T04:57:06.617Z,78.80
2018-05-25T04:59:34.201Z,79.30
2018-05-25T05:02:03.110Z,78.50
2018-05-25T05:04:30.971Z,79.10
2018-05-25T05:06:58.522Z,78.30
2018-05-25T05:09:27.177Z,78.60
2018-05-25T05:11:54.729Z,79.10
2018-05-25T05:14:22.515Z,79.50
2018-05-25T05:16:50.435Z,79.40
2018-05-25T05:19:18.149Z,80.00
2018-05-25T05:21:45.753Z,79.90
2018-05-25T05:24:13.465Z,79.60
2018-05-25T05:26:42.016Z,80.20
2018-05-25T05:29:09.560Z,80.30
2018-05-25T05:31:37.251Z,79.10
2018-05-25T05:34:04.802Z,79.20
2018-05-25T05:36:32.565Z,79.50
2018-05-25T05:39:00.220Z,78.90
2018-05-25T05:41:27.823Z,79.10
2018-05-25T05:43:55.338Z,79.10
2018-05-25T05:46:23.023Z,78.80
2018-05-25T05:48:50.685Z,77.60
2018-05-25T05:51:18.407Z,75.90
2018-05-25T05:53:45.954Z,75.00
2018-05-25T05:56:13.509Z,74.80
2018-05-25T05:58:41.232Z,74.10
2018-05-25T06:01:08.767Z,73.60
2018-05-25T06:03:36.606Z,72.90
2018-05-25T06:06:04.335Z,72.70
2018-05-25T06:08:32.640Z,71.70
2018-05-25T06:11:02.895Z,70.50
2018-05-25T06:13:30.987Z,70.50
2018-05-25T06:15:58.541Z,70.10
2018-05-25T06:18:26.144Z,70.30
2018-05-25T06:20:53.836Z,69.90
2018-05-25T06:23:21.560Z,69.50
2018-05-25T06:25:49.225Z,69.90
2018-05-25T06:28:16.779Z,69.00
2018-05-25T06:30:44.314Z,68.10
2018-05-25T06:33:12.034Z,67.50
2018-05-25T06:35:40.751Z,65.70
2018-05-25T06:38:08.382Z,66.30
2018-05-25T06:40:35.928Z,65.10
2018-05-25T06:43:03.523Z,63.40
2018-05-25T06:45:31.109Z,61.70
2018-05-25T06:47:58.861Z,61.10
2018-05-25T06:50:26.676Z,59.80
2018-05-25T06:52:54.210Z,60.30
2018-05-25T06:55:21.891Z,59.30
2018-05-25T06:57:49.584Z,59.30
2018-05-25T07:00:17.133Z,59.10
2018-05-25T07:02:44.714Z,58.90
2018-05-25T07:05:12.303Z,57.60
2018-05-25T07:07:39.941Z,57.20
2018-05-25T07:10:08.388Z,59.10
2018-05-25T07:12:35.954Z,57.90
2018-05-25T07:15:03.614Z,57.90
2018-05-25T07:17:31.402Z,59.00
2018-05-25T07:19:58.970Z,60.00
2018-05-25T07:22:26.625Z,58.60
2018-05-25T07:24:54.142Z,57.00
2018-05-25T07:27:21.714Z,56.10
2018-05-25T07:29:49.272Z,57.50
2018-05-25T07:32:16.820Z,56.40
2018-05-25T07:34:44.480Z,56.90
2018-05-25T07:37:12.065Z,56.90
2018-05-25T07:39:39.764Z,56.80
2018-05-25T07:42:07.581Z,57.20
2018-05-25T07:44:36.727Z,56.20
2018-05-25T07:47:04.548Z,56.20
2018-05-25T07:49:33.225Z,56.80
2018-05-25T07:52:01.252Z,53.90
2018-05-25T07:54:29.786Z,53.60
2018-05-25T07:56:59.467Z,53.30
2018-05-25T07:59:26.998Z,53.50
2018-05-25T08:01:54.717Z,53.00
2018-05-25T08:04:23.558Z,52.00
2018-05-25T08:06:51.209Z,50.60
2018-05-25T08:09:18.887Z,50.10
2018-05-25T08:11:46.568Z,51.00
2018-05-25T08:14:14.606Z,49.30
2018-05-25T08:16:43.282Z,49.50
2018-05-25T08:19:11.046Z,47.10
2018-05-25T08:21:38.686Z,46.00
2018-05-25T08:24:06.385Z,45.10
2018-05-25T08:26:34.141Z,43.60
2018-05-25T08:29:02.898Z,42.80
2018-05-25T08:31:30.469Z,41.10
2018-05-25T08:33:58.283Z,39.80
2018-05-25T08:36:26.635Z,39.70
2018-05-25T08:38:54.227Z,38.30
2018-05-25T08:41:21.800Z,39.00
2018-05-25T08:43:49.376Z,38.90
2018-05-25T08:46:17.231Z,37.20
2018-05-25T08:48:45.080Z,34.40
2018-05-25T08:51:12.748Z,33.40
2018-05-25T08:53:40.329Z,33.10
2018-05-25T08:56:08.091Z,33.30
2018-05-25T08:58:36.600Z,35.20
2018-05-25T09:01:07.158Z,35.90
2018-05-25T09:03:35.741Z,35.00
2018-05-25T09:06:06.879Z,35.30
2018-05-25T09:08:34.478Z,35.80
2018-05-25T09:11:03.728Z,37.50
2018-05-25T09:13:32.046Z,37.20
2018-05-25T09:15:59.660Z,38.20
2018-05-25T09:18:27.263Z,39.60
2018-05-25T09:20:54.791Z,40.50
2018-05-25T09:23:22.523Z,39.50
2018-05-25T09:25:50.159Z,37.30
2018-05-25T09:28:17.807Z,35.60
2018-05-25T09:30:45.454Z,33.40
2018-05-25T09:33:12.989Z,30.30
2018-05-25T09:35:40.625Z,29.80
2018-05-25T09:38:08.759Z,29.70
2018-05-25T09:40:36.345Z,28.30
2018-05-25T09:43:04.017Z,26.90
2018-05-25T09:45:31.588Z,26.70
2018-05-25T09:47:59.142Z,25.90
2018-05-25T09:50:26.939Z,26.50
2018-05-25T09:52:55.492Z,25.30
2018-05-25T09:55:23.060Z,24.70
2018-05-25T09:57:57.009Z,26.10
2018-05-25T10:00:25.592Z,25.40
2018-05-25T10:02:53.241Z,26.20
2018-05-25T10:05:20.804Z,26.30
2018-05-25T10:07:48.372Z,25.40
2018-05-25T10:10:16.090Z,24.40
2018-05-25T10:12:43.757Z,24.50
2018-05-25T10:15:11.352Z,24.60
2018-05-25T10:17:38.903Z,23.30
2018-05-25T10:20:06.455Z,24.30
2018-05-25T10:22:34.557Z,23.70
2018-05-25T10:25:02.407Z,24.30
2018-05-25T10:27:30.169Z,24.20
2018-05-25T10:29:57.786Z,24.90
2018-05-25T10:32:25.437Z,25.50
2018-05-25T10:34:53.011Z,25.00
2018-05-25T10:37:20.525Z,25.60
2018-05-25T10:39:48.061Z,24.80
2018-05-25T10:42:16.487Z,25.60
2018-05-25T10:44:44.001Z,25.30
2018-05-25T10:47:11.574Z,25.40
2018-05-25T10:49:40.184Z,24.70
2018-05-25T10:52:07.797Z,23.70
2018-05-25T10:54:35.372Z,22.80
2018-05-25T10:57:02.948Z,22.60
2018-05-25T10:59:30.579Z,24.20
2018-05-25T11:01:58.176Z,23.30
2018-05-25T11:04:26.079Z,22.50
2018-05-25T11:06:53.722Z,23.10
2018-05-25T11:09:21.247Z,22.40
2018-05-25T11:11:48.832Z,22.60
2018-05-25T11:14:16.893Z,24.70
2018-05-25T11:16:44.517Z,25.70
2018-05-25T11:19:13.003Z,27.30
2018-05-25T11:21:40.626Z,26.80
2018-05-25T11:24:08.196Z,28.20
2018-05-25T11:26:36.457Z,30.40
2018-05-25T11:29:04.077Z,31.40
2018-05-25T11:31:32.132Z,33.20
2018-05-25T11:33:59.707Z,34.70
2018-05-25T11:36:27.240Z,35.60
2018-05-25T11:38:55.756Z,36.60
2018-05-25T11:41:23.489Z,37.30
2018-05-25T11:43:51.074Z,38.40
2018-05-25T11:46:18.611Z,38.90
2018-05-25T11:48:46.199Z,39.40
2018-05-25T11:51:13.890Z,40.90
2018-05-25T11:53:42.689Z,41.40
2018-05-25T11:56:11.235Z,41.60
2018-05-25T11:58:39.004Z,41.90
2018-05-25T12:01:06.617Z,42.80
2018-05-25T12:03:34.258Z,42.80
2018-05-25T12:06:01.798Z,41.60
2018-05-25T12:08:29.337Z,41.60
2018-05-25T12:10:57.117Z,43.10
2018-05-25T12:13:24.792Z,42.10
2018-05-25T12:15:52.332Z,40.40
2018-05-25T12:18:19.856Z,41.00
2018-05-25T12:20:48.467Z,40.90
2018-05-25T12:23:16.406Z,42.10
2018-05-25T12:25:44.945Z,40.40
2018-05-25T12:28:12.505Z,40.10
2018-05-25T12:30:40.035Z,40.40
2018-05-25T12:33:08.476Z,43.10
2018-05-25T12:35:36.097Z,43.20
2018-05-25T12:38:03.639Z,43.60
2018-05-25T12:40:31.390Z,42.80
2018-05-25T12:42:58.950Z,43.40
2018-05-25T12:45:26.516Z,43.40
2018-05-25T12:47:54.236Z,44.10
2018-05-25T12:50:21.847Z,43.40
2018-05-25T12:52:49.460Z,44.30
2018-05-25T12:55:16.985Z,44.00
2018-05-25T12:57:44.860Z,44.80
2018-05-25T13:00:13.287Z,43.90
2018-05-25T13:02:40.935Z,45.00
2018-05-25T13:05:08.571Z,44.90
2018-05-25T13:07:36.131Z,44.10
2018-05-25T13:10:03.956Z,44.70
2018-05-25T13:12:33.515Z,45.10
2018-05-25T13:15:02.201Z,43.40
2018-05-25T13:17:32.005Z,43.60
2018-05-25T13:19:59.615Z,44.00
2018-05-25T13:22:27.421Z,43.00
2018-05-25T13:24:55.143Z,43.00
2018-05-25T13:27:23.950Z,42.70
2018-05-25T13:29:51.664Z,43.40
2018-05-25T13:32:20.318Z,43.60
2018-05-25T13:34:48.871Z,43.40
2018-05-25T13:37:16.830Z,43.10
2018-05-25T13:39:44.561Z,44.60
2018-05-25T13:42:13.013Z,45.80
2018-05-25T13:44:40.714Z,46.20
2018-05-25T13:47:09.447Z,46.50
2018-05-25T13:49:37.478Z,46.20
2018-05-25T13:52:05.295Z,46.60
2018-05-25T13:54:33.878Z,46.70
2018-05-25T13:57:06.441Z,46.50
2018-05-25T13:59:34.162Z,46.20
2018-05-25T14:02:06.030Z,46.30
2018-05-25T14:04:33.677Z,46.20
2018-05-25T14:07:01.636Z,46.40
2018-05-25T14:09:29.321Z,45.70
2018-05-25T14:11:58.048Z,45.90
2018-05-25T14:14:25.760Z,46.10
2018-05-25T14:16:53.427Z,46.30
2018-05-25T14:19:21.201Z,46.70
2018-05-25T14:21:49.203Z,46.00
2018-05-25T14:24:18.085Z,46.90
2018-05-25T14:26:45.706Z,46.20
2018-05-25T14:29:13.479Z,46.60
2018-05-25T14:31:41.779Z,47.00
2018-05-25T14:34:09.622Z,46.70
2018-05-25T14:36:37.248Z,47.70
2018-05-25T14:39:07.506Z,47.30
2018-05-25T14:41:35.894Z,47.40
2018-05-25T14:44:05.515Z,47.40
2018-05-25T14:46:35.712Z,47.30
2018-05-25T14:49:06.607Z,47.70
2018-05-25T14:51:34.426Z,46.70
2018-05-25T14:54:05.700Z,46.60
2018-05-25T14:56:34.436Z,45.00
2018-05-25T14:59:05.920Z,43.80
2018-05-25T15:01:33.669Z,44.50
2018-05-25T15:04:04.762Z,45.20
2018-05-25T15:06:32.599Z,45.70
2018-05-25T15:09:00.970Z,45.90
2018-05-25T15:11:28.773Z,46.70
2018-05-25T15:13:56.423Z,52.50
2018-05-25T15:16:24.213Z,55.90
2018-05-25T15:18:52.054Z,57.70
2018-05-25T15:21:19.710Z,57.60
2018-05-25T15:23:47.429Z,58.40
2018-05-25T15:26:19.086Z,58.30
2018-05-25T15:28:46.728Z,59.10
2018-05-25T15:31:15.657Z,59.50
2018-05-25T15:33:44.383Z,60.00
2018-05-25T15:36:12.980Z,60.00
2018-05-25T15:38:40.764Z,60.60
2018-05-25T15:41:08.584Z,61.30
2018-05-25T15:43:37.241Z,59.50
2018-05-25T15:46:07.142Z,58.80
2018-05-25T15:48:34.784Z,58.60
2018-05-25T15:51:07.154Z,59.60
2018-05-25T15:53:34.837Z,60.30
2018-05-25T15:56:02.478Z,60.80
2018-05-25T15:58:31.810Z,61.60
2018-05-25T16:00:59.418Z,61.50
2018-05-25T16:03:27.123Z,60.70
2018-05-25T16:05:54.793Z,61.00
2018-05-25T16:08:24.224Z,60.20
2018-05-25T16:10:51.946Z,60.70
2018-05-25T16:13:19.752Z,61.50
2018-05-25T16:15:47.392Z,60.80
2018-05-25T16:18:15.208Z,61.30
2018-05-25T16:20:43.894Z,61.20
2018-05-25T16:23:11.511Z,60.60
2018-05-25T16:25:39.198Z,60.30
2018-05-25T16:28:07.612Z,59.90
2018-05-25T16:30:36.212Z,59.80
2018-05-25T16:33:05.965Z,60.40
2018-05-25T16:35:33.747Z,60.30
2018-05-25T16:38:07.908Z,60.30
2018-05-25T16:40:36.569Z,60.10
2018-05-25T16:43:07.583Z,60.40
2018-05-25T16:45:35.317Z,59.20
2018-05-25T16:48:05.735Z,57.80
2018-05-25T16:50:33.340Z,58.80
2018-05-25T16:53:01.138Z,59.20
2018-05-25T16:55:29.704Z,59.30
2018-05-25T16:57:57.684Z,58.70
2018-05-25T17:00:25.433Z,58.70
2018-05-25T17:02:53.063Z,58.70
2018-05-25T17:05:20.781Z,59.60
2018-05-25T17:07:48.626Z,59.90
2018-05-25T17:10:16.764Z,59.70
2018-05-25T17:12:44.412Z,59.60
2018-05-25T17:15:12.047Z,59.10
2018-05-25T17:17:39.799Z,59.00
2018-05-25T17:20:07.711Z,57.80
2018-05-25T17:22:35.613Z,58.40
2018-05-25T17:25:03.337Z,58.70
2018-05-25T17:27:30.994Z,58.60
2018-05-25T17:29:58.797Z,58.40
2018-05-25T17:32:26.397Z,58.30
2018-05-25T17:34:54.130Z,58.20
2018-05-25T17:37:21.917Z,58.40
2018-05-25T17:39:50.500Z,58.50
2018-05-25T17:42:18.827Z,59.00
2018-05-25T17:44:46.499Z,59.50
2018-05-25T17:47:14.545Z,59.10
2018-05-25T17:49:42.795Z,58.60
2018-05-25T17:52:10.957Z,58.60
2018-05-25T17:54:38.675Z,58.50
2018-05-25T17:57:07.319Z,58.60
2018-05-25T17:59:35.618Z,58.70
2018-05-25T18:02:03.535Z,57.40
2018-05-25T18:04:31.967Z,57.40
2018-05-25T18:06:59.693Z,57.50
2018-05-25T18:09:28.309Z,57.60
2018-05-25T18:11:55.908Z,56.80
2018-05-25T18:14:23.597Z,57.40
2018-05-25T18:16:51.260Z,57.00
2018-05-25T18:19:18.877Z,57.20
2018-05-25T18:21:46.476Z,57.60
2018-05-25T18:24:14.196Z,57.80
2018-05-25T18:26:42.000Z,57.80
2018-05-25T18:29:09.752Z,58.90
2018-05-25T18:31:37.567Z,58.70
2018-05-25T18:34:05.182Z,59.10
2018-05-25T18:36:32.908Z,58.90
2018-05-25T18:39:03.204Z,59.40
2018-05-25T18:41:30.826Z,59.60
2018-05-25T18:43:58.671Z,59.60
2018-05-25T18:46:26.256Z,59.70
2018-05-25T18:48:54.056Z,60.10
2018-05-25T18:51:21.634Z,60.80
2018-05-25T18:54:00.877Z,61.00
2018-05-25T18:56:29.191Z,61.40
2018-05-25T18:58:57.561Z,61.10
2018-05-25T19:01:25.176Z,61.40
2018-05-25T19:03:52.720Z,61.90
2018-05-25T19:06:20.720Z,61.70
2018-05-25T19:08:49.188Z,61.90
2018-05-25T19:11:17.024Z,62.70
2018-05-25T19:13:44.694Z,62.20
2018-05-25T19:16:12.304Z,62.50
2018-05-25T19:18:39.855Z,61.30
2018-05-25T19:21:07.415Z,61.30
2018-05-25T19:23:34.951Z,61.40
2018-05-25T19:26:02.602Z,61.60
2018-05-25T19:28:30.163Z,62.00
2018-05-25T19:30:57.683Z,62.10
2018-05-25T19:33:25.624Z,61.70
2018-05-25T19:35:53.918Z,62.10
2018-05-25T19:38:21.503Z,61.90
2018-05-25T19:40:49.015Z,62.30
2018-05-25T19:43:16.715Z,62.10
2018-05-25T19:45:44.696Z,62.60
2018-05-25T19:48:12.215Z,63.40
2018-05-25T19:50:39.792Z,62.70
2018-05-25T19:53:07.377Z,62.20
2018-05-25T19:55:34.984Z,62.60
2018-05-25T19:58:02.529Z,62.20
2018-05-25T20:00:30.169Z,61.90
2018-05-25T20:02:57.707Z,62.10
2018-05-25T20:05:25.293Z,62.80
2018-05-25T20:07:52.811Z,62.50
2018-05-25T20:10:20.457Z,62.90
2018-05-25T20:12:47.993Z,62.80
2018-05-25T20:15:15.933Z,63.00
2018-05-25T20:17:43.505Z,62.40
2018-05-25T20:20:11.121Z,63.60
2018-05-25T20:22:38.795Z,63.00
2018-05-25T20:25:06.848Z,63.90
2018-05-25T20:27:34.475Z,64.20
2018-05-25T20:30:02.013Z,63.80
2018-05-25T20:32:29.598Z,64.30
2018-05-25T20:34:57.216Z,63.60
2018-05-25T20:37:25.521Z,64.80
2018-05-25T20:39:53.461Z,65.50
2018-05-25T20:42:20.992Z,65.10
2018-05-25T20:44:48.574Z,65.70
2018-05-25T20:47:16.123Z,64.80
2018-05-25T20:49:44.447Z,65.00
2018-05-25T20:52:13.092Z,65.70
2018-05-25T20:54:40.650Z,65.10
2018-05-25T20:57:08.343Z,65.20
2018-05-25T20:59:36.010Z,65.40
2018-05-25T21:02:03.606Z,66.70
2018-05-25T21:04:31.309Z,66.10
2018-05-25T21:06:58.864Z,66.60
2018-05-25T21:09:26.537Z,66.10
2018-05-25T21:11:54.302Z,66.10
2018-05-25T21:14:21.837Z,66.00
2018-05-25T21:16:49.564Z,65.80
2018-05-25T21:19:26.495Z,66.20
2018-05-25T21:21:54.036Z,66.60
2018-05-25T21:24:21.576Z,67.20
2018-05-25T21:26:49.174Z,68.30
2018-05-25T21:29:16.907Z,68.10
2018-05-25T21:31:44.552Z,68.50
2018-05-25T21:34:12.258Z,68.00
2018-05-25T21:36:39.798Z,69.10
2018-05-25T21:39:07.363Z,69.50
2018-05-25T21:41:34.900Z,70.10
2018-05-25T21:44:04.447Z,70.70
2018-05-25T21:46:32.014Z,71.00
2018-05-25T21:48:59.576Z,71.20
2018-05-25T21:51:27.275Z,71.80
2018-05-25T21:53:54.910Z,72.40
2018-05-25T21:56:22.473Z,72.80
2018-05-25T21:58:50.031Z,72.80
2018-05-25T22:01:17.608Z,72.30
2018-05-25T22:03:45.917Z,72.40
2018-05-25T22:06:13.474Z,72.20
2018-05-25T22:08:41.013Z,72.20
2018-05-25T22:11:08.701Z,72.40
2018-05-25T22:13:36.256Z,72.50
2018-05-25T22:16:03.813Z,73.30
2018-05-25T22:18:31.643Z,73.10
2018-05-25T22:20:59.782Z,72.80
2018-05-25T22:23:27.821Z,73.10
2018-05-25T22:25:55.347Z,72.70
2018-05-25T22:28:22.995Z,73.00
2018-05-25T22:30:50.556Z,73.10
2018-05-25T22:33:18.892Z,72.90
2018-05-25T22:35:46.752Z,73.30
2018-05-25T22:38:14.322Z,73.50
2018-05-25T22:40:41.876Z,74.10
2018-05-25T22:43:21.168Z,74.30
2018-05-25T22:46:00.496Z,74.60
2018-05-25T22:48:39.625Z,74.50
2018-05-25T22:51:18.950Z,74.30
2018-05-25T22:53:51.681Z,74.70
2018-05-25T22:56:19.203Z,74.40
2018-05-25T22:58:46.809Z,74.50
2018-05-25T23:01:14.568Z,74.60
2018-05-25T23:03:42.155Z,74.00
2018-05-25T23:06:09.707Z,74.20
2018-05-25T23:08:37.260Z,74.70
2018-05-25T23:11:04.841Z,74.60
2018-05-25T23:13:32.358Z,75.00
2018-05-25T23:15:59.884Z,74.90
2018-05-25T23:18:27.525Z,74.90
2018-05-25T23:20:55.055Z,75.20
2018-05-25T23:23:22.753Z,75.30
2018-05-25T23:25:50.275Z,75.20
2018-05-25T23:28:17.828Z,74.80
2018-05-25T23:30:45.421Z,74.20
2018-05-25T23:33:12.992Z,74.90
2018-05-25T23:35:40.544Z,74.70
2018-05-25T23:38:08.063Z,74.50
2018-05-25T23:40:35.907Z,74.50
2018-05-25T23:43:03.424Z,74.20
2018-05-25T23:45:30.986Z,75.00
2018-05-25T23:47:58.581Z,75.50
2018-05-25T23:50:26.122Z,75.30
2018-05-25T23:52:53.717Z,75.60
2018-05-25T23:55:21.330Z,75.90
2018-05-25T23:57:48.865Z,75.70
